createdAt,value
2023-05-23T00:00:21.026Z,52.48
2023-05-23T00:01:20.979Z,52.48
2023-05-23T00:02:21.075Z,52.47
2023-05-23T00:03:21.196Z,52.47
2023-05-23T00:04:21.236Z,52.45
2023-05-23T00:05:21.116Z,52.47
2023-05-23T00:06:21.161Z,52.49
2023-05-23T00:07:21.196Z,52.46
2023-05-23T00:08:21.259Z,52.46
2023-05-23T00:09:21.283Z,52.47
2023-05-23T00:10:21.287Z,52.47
2023-05-23T00:11:21.358Z,52.48
2023-05-23T00:12:21.417Z,52.46
2023-05-23T00:13:21.420Z,52.48
2023-05-23T00:14:21.465Z,52.46
2023-05-23T00:15:21.514Z,52.49
2023-05-23T00:16:21.724Z,52.47
2023-05-23T00:17:21.600Z,52.48
2023-05-23T00:18:21.619Z,52.48
2023-05-23T00:19:21.702Z,52.48
2023-05-23T00:20:21.699Z,52.48
2023-05-23T00:21:21.739Z,52.48
2023-05-23T00:22:21.752Z,52.48
2023-05-23T00:23:21.808Z,52.48
2023-05-23T00:24:21.855Z,52.48
2023-05-23T00:25:21.886Z,52.51
2023-05-23T00:26:21.924Z,52.51
2023-05-23T00:27:21.957Z,52.50
2023-05-23T00:28:21.995Z,52.51
2023-05-23T00:29:22.050Z,52.50
2023-05-23T00:30:22.049Z,52.52
2023-05-23T00:31:22.107Z,52.51
2023-05-23T00:32:22.313Z,52.51
2023-05-23T00:33:22.459Z,52.51
2023-05-23T00:34:22.260Z,52.51
2023-05-23T00:35:22.293Z,52.52
2023-05-23T00:36:22.339Z,52.53
2023-05-23T00:37:22.369Z,52.51
2023-05-23T00:38:22.413Z,52.52
2023-05-23T00:39:22.456Z,52.50
2023-05-23T00:40:22.453Z,52.52
2023-05-23T00:41:22.493Z,52.52
2023-05-23T00:42:22.529Z,52.54
2023-05-23T00:43:22.572Z,52.51
2023-05-23T00:44:22.956Z,52.54
2023-05-23T00:45:22.663Z,52.53
2023-05-23T00:46:22.721Z,52.55
2023-05-23T00:47:22.760Z,52.55
2023-05-23T00:48:22.869Z,52.55
2023-05-23T00:49:22.811Z,52.53
2023-05-23T00:50:22.897Z,52.53
2023-05-23T00:51:22.914Z,52.54
2023-05-23T00:52:22.940Z,52.55
2023-05-23T00:53:22.955Z,52.54
2023-05-23T00:54:23.032Z,52.54
2023-05-23T00:55:23.077Z,52.54
2023-05-23T00:56:23.121Z,52.56
2023-05-23T00:57:23.152Z,52.56
2023-05-23T00:58:23.199Z,52.55
2023-05-23T00:59:23.232Z,52.57
2023-05-23T01:00:23.305Z,52.54
2023-05-23T01:01:23.287Z,52.56
2023-05-23T01:02:23.390Z,52.55
2023-05-23T01:03:23.536Z,52.55
2023-05-23T01:04:23.474Z,52.55
2023-05-23T01:05:23.436Z,52.56
2023-05-23T01:06:23.490Z,52.55
2023-05-23T01:07:23.537Z,52.54
2023-05-23T01:08:23.545Z,52.54
2023-05-23T01:09:23.600Z,52.54
2023-05-23T01:11:42.926Z,52.66
2023-05-23T01:12:42.900Z,52.60
2023-05-23T01:13:42.932Z,52.60
2023-05-23T01:14:42.913Z,52.57
2023-05-23T01:15:43.116Z,52.58
2023-05-23T01:16:42.966Z,52.58
2023-05-23T01:17:42.918Z,52.57
2023-05-23T01:18:42.889Z,52.55
2023-05-23T01:19:42.985Z,52.57
2023-05-23T01:20:42.889Z,52.55
2023-05-23T01:21:42.859Z,52.57
2023-05-23T01:22:42.849Z,52.54
2023-05-23T01:23:42.854Z,52.54
2023-05-23T01:24:42.861Z,52.55
2023-05-23T01:25:42.937Z,52.56
2023-05-23T01:26:42.822Z,52.56
2023-05-23T01:27:42.831Z,52.56
2023-05-23T01:28:42.835Z,52.57
2023-05-23T01:29:42.833Z,52.56
2023-05-23T01:30:42.827Z,52.55
2023-05-23T01:31:42.856Z,52.59
2023-05-23T01:32:42.814Z,52.58
2023-05-23T01:33:42.768Z,52.55
2023-05-23T01:34:42.781Z,52.55
2023-05-23T01:35:42.938Z,52.55
2023-05-23T01:36:42.750Z,52.59
2023-05-23T01:37:42.743Z,52.56
2023-05-23T01:38:42.755Z,52.58
2023-05-23T01:39:42.752Z,52.58
2023-05-23T01:40:42.735Z,52.57
2023-05-23T01:41:42.747Z,52.58
2023-05-23T01:42:42.733Z,52.58
2023-05-23T01:43:42.737Z,52.58
2023-05-23T01:44:42.728Z,52.59
2023-05-23T01:45:42.955Z,52.59
2023-05-23T01:46:42.707Z,52.56
2023-05-23T01:47:42.795Z,52.59
2023-05-23T01:48:42.683Z,52.58
2023-05-23T01:49:42.671Z,52.58
2023-05-23T01:50:42.703Z,52.60
2023-05-23T01:51:42.771Z,52.60
2023-05-23T01:52:42.670Z,52.59
2023-05-23T01:53:42.665Z,52.60
2023-05-23T01:54:42.698Z,52.59
2023-05-23T01:55:42.637Z,52.59
2023-05-23T01:56:42.667Z,52.60
2023-05-23T01:57:42.663Z,52.58
2023-05-23T01:58:42.627Z,52.59
2023-05-23T01:59:42.661Z,52.62
2023-05-23T02:00:42.690Z,52.58
2023-05-23T02:01:42.804Z,52.61
2023-05-23T02:02:42.881Z,52.57
2023-05-23T02:03:42.916Z,52.60
2023-05-23T02:04:42.850Z,52.59
2023-05-23T02:05:43.311Z,52.61
2023-05-23T02:06:42.957Z,52.60
2023-05-23T02:07:43.087Z,52.60
2023-05-23T02:08:43.017Z,52.63
2023-05-23T02:09:43.091Z,52.62
2023-05-23T02:10:43.129Z,52.62
2023-05-23T02:11:43.145Z,52.63
2023-05-23T02:12:43.198Z,52.61
2023-05-23T02:13:43.237Z,52.62
2023-05-23T02:14:43.262Z,52.63
2023-05-23T02:15:43.311Z,52.63
2023-05-23T02:16:43.360Z,52.61
2023-05-23T02:17:43.420Z,52.62
2023-05-23T02:18:43.433Z,52.63
2023-05-23T02:19:43.482Z,52.65
2023-05-23T02:20:43.519Z,52.63
2023-05-23T02:21:43.559Z,52.63
2023-05-23T02:22:43.584Z,52.63
2023-05-23T02:23:43.715Z,52.64
2023-05-23T02:24:43.686Z,52.66
2023-05-23T02:25:43.709Z,52.64
2023-05-23T02:26:43.737Z,52.66
2023-05-23T02:27:43.823Z,52.66
2023-05-23T02:28:43.841Z,52.64
2023-05-23T02:29:43.879Z,52.66
2023-05-23T02:30:43.929Z,52.63
2023-05-23T02:31:44.073Z,52.63
2023-05-23T02:32:44.040Z,52.64
2023-05-23T02:33:44.049Z,52.65
2023-05-23T02:34:44.093Z,52.64
2023-05-23T02:35:44.113Z,52.68
2023-05-23T02:36:44.163Z,52.63
2023-05-23T02:37:44.227Z,52.65
2023-05-23T02:38:44.229Z,52.67
2023-05-23T02:39:44.390Z,52.66
2023-05-23T02:40:44.303Z,52.68
2023-05-23T02:41:44.370Z,52.67
2023-05-23T02:42:44.413Z,52.69
2023-05-23T02:43:46.750Z,52.69
2023-05-23T02:44:44.521Z,52.67
2023-05-23T02:45:44.539Z,52.70
2023-05-23T02:46:44.650Z,52.70
2023-05-23T02:47:44.675Z,52.68
2023-05-23T02:48:44.696Z,52.72
2023-05-23T02:49:44.723Z,52.73
2023-05-23T02:50:44.750Z,52.71
2023-05-23T02:51:44.790Z,52.71
2023-05-23T02:52:44.851Z,52.71
2023-05-23T02:53:44.895Z,52.72
2023-05-23T02:54:44.926Z,52.73
2023-05-23T02:55:45.049Z,52.72
2023-05-23T02:56:44.987Z,52.74
2023-05-23T02:57:45.052Z,52.74
2023-05-23T02:58:45.090Z,52.78
2023-05-23T02:59:45.122Z,52.76
2023-05-23T03:00:45.147Z,52.73
2023-05-23T03:01:45.256Z,52.74
2023-05-23T03:02:45.323Z,52.77
2023-05-23T03:03:45.372Z,52.77
2023-05-23T03:04:45.326Z,52.74
2023-05-23T03:05:45.378Z,52.75
2023-05-23T03:06:45.398Z,52.76
2023-05-23T03:07:45.431Z,52.78
2023-05-23T03:08:45.511Z,52.78
2023-05-23T03:09:45.552Z,52.78
2023-05-23T03:10:45.598Z,52.78
2023-05-23T03:11:45.741Z,52.80
2023-05-23T03:12:45.665Z,52.81
2023-05-23T03:13:45.696Z,52.79
2023-05-23T03:14:45.761Z,52.80
2023-05-23T03:15:45.803Z,52.80
2023-05-23T03:16:45.877Z,52.79
2023-05-23T03:17:45.936Z,52.79
2023-05-23T03:18:45.942Z,52.82
2023-05-23T03:19:45.976Z,52.82
2023-05-23T03:20:46.010Z,52.79
2023-05-23T03:21:46.045Z,52.81
2023-05-23T03:22:46.141Z,52.81
2023-05-23T03:23:46.126Z,52.79
2023-05-23T03:24:46.174Z,52.81
2023-05-23T03:25:46.212Z,52.81
2023-05-23T03:26:46.247Z,52.84
2023-05-23T03:27:46.390Z,52.84
2023-05-23T03:28:46.320Z,52.83
2023-05-23T03:29:46.376Z,52.83
2023-05-23T03:30:46.415Z,52.85
2023-05-23T03:31:46.470Z,52.84
2023-05-23T03:32:46.563Z,52.85
2023-05-23T03:33:46.562Z,52.86
2023-05-23T03:34:46.625Z,52.85
2023-05-23T03:35:46.644Z,52.86
2023-05-23T03:36:46.712Z,52.86
2023-05-23T03:37:46.763Z,52.87
2023-05-23T03:38:46.776Z,52.85
2023-05-23T03:39:46.838Z,52.86
2023-05-23T03:40:46.870Z,52.87
2023-05-23T03:41:46.940Z,52.85
2023-05-23T03:42:46.941Z,52.86
2023-05-23T03:43:47.114Z,52.84
2023-05-23T03:44:47.060Z,52.85
2023-05-23T03:45:47.130Z,52.84
2023-05-23T03:46:47.146Z,52.86
2023-05-23T03:47:47.231Z,52.86
2023-05-23T03:48:47.198Z,52.86
2023-05-23T03:49:47.249Z,52.86
2023-05-23T03:50:47.286Z,52.86
2023-05-23T03:51:47.348Z,52.85
2023-05-23T03:52:47.378Z,52.88
2023-05-23T03:53:47.440Z,52.87
2023-05-23T03:54:47.466Z,52.86
2023-05-23T03:55:47.569Z,52.88
2023-05-23T03:56:47.557Z,52.89
2023-05-23T03:57:47.583Z,52.87
2023-05-23T03:58:47.629Z,52.89
2023-05-23T03:59:47.783Z,52.89
2023-05-23T04:00:47.708Z,52.90
2023-05-23T04:01:47.761Z,52.88
2023-05-23T04:02:47.895Z,52.88
2023-05-23T04:03:47.967Z,52.87
2023-05-23T04:04:47.885Z,52.91
2023-05-23T04:05:47.931Z,52.91
2023-05-23T04:06:47.954Z,52.93
2023-05-23T04:07:48.001Z,52.94
2023-05-23T04:08:48.046Z,52.91
2023-05-23T04:09:48.112Z,52.93
2023-05-23T04:10:48.134Z,52.93
2023-05-23T04:11:48.187Z,52.96
2023-05-23T04:12:48.301Z,52.92
2023-05-23T04:13:48.250Z,52.93
2023-05-23T04:14:48.292Z,52.92
2023-05-23T04:15:48.483Z,52.94
2023-05-23T04:16:48.398Z,52.93
2023-05-23T04:17:48.486Z,52.94
2023-05-23T04:18:48.536Z,52.96
2023-05-23T04:19:48.518Z,52.96
2023-05-23T04:20:48.549Z,52.94
2023-05-23T04:21:48.594Z,52.96
2023-05-23T04:22:48.688Z,52.98
2023-05-23T04:23:48.695Z,52.97
2023-05-23T04:24:48.729Z,52.93
2023-05-23T04:25:48.755Z,52.98
2023-05-23T04:26:48.820Z,52.97
2023-05-23T04:27:48.820Z,52.96
2023-05-23T04:28:48.982Z,52.98
2023-05-23T04:29:48.941Z,52.99
2023-05-23T04:30:48.962Z,52.98
2023-05-23T04:31:49.143Z,52.97
2023-05-23T04:32:49.065Z,52.98
2023-05-23T04:33:49.092Z,52.94
2023-05-23T04:34:49.130Z,53.00
2023-05-23T04:35:49.165Z,52.99
2023-05-23T04:36:49.242Z,52.97
2023-05-23T04:37:49.278Z,53.00
2023-05-23T04:38:49.332Z,52.97
2023-05-23T04:39:49.367Z,53.01
2023-05-23T04:40:49.417Z,53.02
2023-05-23T04:41:49.428Z,53.00
2023-05-23T04:42:49.469Z,53.01
2023-05-23T04:43:49.528Z,53.01
2023-05-23T04:44:49.586Z,53.02
2023-05-23T04:45:49.651Z,53.01
2023-05-23T04:46:49.639Z,53.07
2023-05-23T04:47:49.855Z,53.06
2023-05-23T04:48:49.730Z,53.08
2023-05-23T04:49:49.775Z,53.06
2023-05-23T04:50:49.814Z,53.04
2023-05-23T04:51:49.872Z,53.06
2023-05-23T04:52:49.901Z,53.07
2023-05-23T04:53:49.944Z,53.06
2023-05-23T04:54:50.007Z,53.05
2023-05-23T04:55:50.030Z,53.07
2023-05-23T04:56:50.060Z,53.10
2023-05-23T04:57:50.110Z,53.11
2023-05-23T04:58:50.151Z,53.12
2023-05-23T04:59:50.230Z,53.13
2023-05-23T05:00:50.245Z,53.13
2023-05-23T05:01:50.260Z,53.12
2023-05-23T05:02:50.382Z,53.14
2023-05-23T05:03:50.486Z,53.12
2023-05-23T05:04:50.414Z,53.13
2023-05-23T05:05:50.446Z,53.11
2023-05-23T05:06:50.456Z,53.11
2023-05-23T05:07:50.486Z,53.12
2023-05-23T05:08:50.545Z,53.10
2023-05-23T05:09:50.649Z,53.11
2023-05-23T05:10:50.653Z,53.12
2023-05-23T05:11:50.687Z,53.11
2023-05-23T05:12:50.717Z,53.13
2023-05-23T05:13:50.789Z,53.14
2023-05-23T05:14:50.821Z,53.13
2023-05-23T05:15:50.821Z,53.13
2023-05-23T05:16:50.916Z,53.13
2023-05-23T05:17:50.984Z,53.14
2023-05-23T05:18:50.975Z,53.14
2023-05-23T05:19:51.092Z,53.14
2023-05-23T05:20:51.020Z,53.12
2023-05-23T05:21:51.078Z,53.16
2023-05-23T05:22:51.127Z,53.13
2023-05-23T05:23:51.151Z,53.12
2023-05-23T05:24:51.227Z,53.16
2023-05-23T05:25:51.275Z,53.15
2023-05-23T05:26:51.285Z,53.14
2023-05-23T05:27:51.305Z,53.16
2023-05-23T05:28:51.398Z,53.16
2023-05-23T05:29:51.424Z,53.15
2023-05-23T05:30:51.505Z,53.17
2023-05-23T05:31:51.506Z,53.16
2023-05-23T05:32:51.688Z,53.15
2023-05-23T05:33:51.580Z,53.13
2023-05-23T05:34:51.672Z,53.16
2023-05-23T05:35:51.673Z,53.15
2023-05-23T05:36:51.698Z,53.17
2023-05-23T05:37:51.759Z,53.16
2023-05-23T05:38:51.793Z,53.17
2023-05-23T05:39:51.860Z,53.17
2023-05-23T05:40:51.933Z,53.15
2023-05-23T05:41:51.946Z,53.16
2023-05-23T05:42:51.962Z,53.18
2023-05-23T05:43:52.070Z,53.15
2023-05-23T05:44:52.092Z,53.17
2023-05-23T05:45:52.176Z,53.17
2023-05-23T05:46:52.218Z,53.19
2023-05-23T05:47:52.268Z,53.19
2023-05-23T05:48:52.271Z,53.22
2023-05-23T05:49:52.328Z,53.26
2023-05-23T05:50:52.361Z,53.26
2023-05-23T05:51:52.484Z,53.23
2023-05-23T05:52:52.439Z,53.28
2023-05-23T05:53:52.505Z,53.25
2023-05-23T05:54:52.545Z,53.26
2023-05-23T05:55:52.566Z,53.25
2023-05-23T05:56:52.712Z,53.24
2023-05-23T05:57:52.693Z,53.48
2023-05-23T05:58:52.699Z,54.00
2023-05-23T05:59:52.758Z,53.96
2023-05-23T06:00:52.781Z,54.44
2023-05-23T06:01:52.811Z,54.83
2023-05-23T06:02:52.908Z,55.07
2023-05-23T06:03:53.027Z,55.14
2023-05-23T06:04:52.885Z,55.05
2023-05-23T06:05:52.860Z,55.40
2023-05-23T06:06:52.860Z,55.25
2023-05-23T06:07:52.851Z,55.39
2023-05-23T06:08:52.906Z,55.53
2023-05-23T06:09:52.971Z,55.48
2023-05-23T06:10:53.012Z,55.61
2023-05-23T06:11:53.088Z,55.65
2023-05-23T06:12:53.149Z,55.74
2023-05-23T06:13:53.200Z,55.85
2023-05-23T06:14:53.291Z,55.89
2023-05-23T06:15:53.377Z,56.08
2023-05-23T06:16:53.370Z,56.05
2023-05-23T06:17:53.453Z,56.11
2023-05-23T06:18:53.530Z,56.19
2023-05-23T06:19:53.543Z,56.60
2023-05-23T06:20:53.590Z,57.84
2023-05-23T06:21:53.620Z,56.72
2023-05-23T06:22:53.661Z,56.56
2023-05-23T06:23:53.804Z,56.50
2023-05-23T06:24:53.774Z,56.32
2023-05-23T06:25:53.764Z,56.53
2023-05-23T06:26:53.818Z,56.73
2023-05-23T06:27:53.886Z,56.57
2023-05-23T06:28:53.944Z,56.92
2023-05-23T06:29:53.984Z,58.28
2023-05-23T06:30:54.034Z,57.80
2023-05-23T06:31:54.176Z,57.76
2023-05-23T06:32:54.208Z,57.67
2023-05-23T06:33:54.237Z,57.78
2023-05-23T06:34:54.325Z,57.77
2023-05-23T06:35:54.362Z,57.80
2023-05-23T06:36:54.414Z,57.72
2023-05-23T06:37:54.493Z,57.88
2023-05-23T06:38:54.534Z,58.01
2023-05-23T06:39:54.671Z,59.12
2023-05-23T06:40:54.646Z,59.81
2023-05-23T06:41:54.754Z,59.09
2023-05-23T06:42:54.798Z,59.18
2023-05-23T06:43:54.852Z,59.11
2023-05-23T06:44:54.961Z,60.35
2023-05-23T06:45:54.995Z,59.70
2023-05-23T06:46:55.014Z,59.76
2023-05-23T06:47:55.119Z,60.16
2023-05-23T06:49:06.435Z,60.84
2023-05-23T06:49:56.144Z,60.58
2023-05-23T06:50:55.137Z,60.51
2023-05-23T06:51:55.126Z,61.88
2023-05-23T06:52:55.093Z,60.51
2023-05-23T06:53:55.098Z,61.28
2023-05-23T06:54:55.112Z,60.97
2023-05-23T06:55:55.187Z,60.66
2023-05-23T06:56:55.100Z,60.44
2023-05-23T06:57:55.112Z,61.20
2023-05-23T06:58:55.186Z,61.27
2023-05-23T06:59:55.251Z,61.44
2023-05-23T07:00:55.289Z,61.35
2023-05-23T07:01:55.311Z,61.21
2023-05-23T07:02:55.448Z,60.87
2023-05-23T07:03:55.383Z,61.06
2023-05-23T07:04:55.448Z,61.05
2023-05-23T07:05:55.536Z,60.77
2023-05-23T07:06:55.486Z,61.20
2023-05-23T07:07:55.536Z,61.01
2023-05-23T07:08:55.736Z,61.23
2023-05-23T07:09:55.583Z,61.31
2023-05-23T07:10:55.578Z,61.37
2023-05-23T07:11:55.695Z,61.68
2023-05-23T07:12:55.577Z,61.56
2023-05-23T07:13:55.621Z,61.55
2023-05-23T07:14:55.646Z,61.41
2023-05-23T07:15:55.742Z,61.58
2023-05-23T07:16:55.677Z,61.48
2023-05-23T07:17:55.722Z,61.45
2023-05-23T07:18:55.838Z,61.53
2023-05-23T07:19:55.669Z,61.52
2023-05-23T07:20:55.714Z,61.75
2023-05-23T07:21:55.736Z,61.64
2023-05-23T07:22:55.705Z,61.77
2023-05-23T07:23:55.740Z,61.58
2023-05-23T07:24:55.761Z,61.41
2023-05-23T07:26:02.684Z,61.57
2023-05-23T07:26:56.756Z,61.59
2023-05-23T07:27:55.846Z,61.43
2023-05-23T07:28:55.782Z,61.36
2023-05-23T07:29:55.785Z,61.42
2023-05-23T07:30:55.755Z,61.39
2023-05-23T07:31:55.737Z,61.36
2023-05-23T07:32:55.730Z,61.20
2023-05-23T07:33:55.918Z,61.34
2023-05-23T07:34:55.715Z,61.77
2023-05-23T07:35:55.713Z,61.91
2023-05-23T07:36:55.687Z,61.55
2023-05-23T07:37:55.688Z,61.42
2023-05-23T07:38:55.685Z,61.47
2023-05-23T07:39:55.679Z,61.65
2023-05-23T07:41:10.044Z,61.95
2023-05-23T07:41:56.880Z,61.80
2023-05-23T07:42:55.879Z,61.71
2023-05-23T07:43:55.857Z,61.62
2023-05-23T07:44:55.839Z,61.52
2023-05-23T07:45:55.877Z,61.41
2023-05-23T07:46:56.014Z,61.42
2023-05-23T07:47:55.893Z,61.35
2023-05-23T07:48:55.958Z,61.41
2023-05-23T07:49:55.972Z,61.57
2023-05-23T07:50:56.020Z,61.50
2023-05-23T07:51:56.102Z,61.36
2023-05-23T07:52:56.198Z,61.26
2023-05-23T07:53:56.181Z,61.20
2023-05-23T07:54:56.224Z,61.21
2023-05-23T07:55:56.296Z,61.21
2023-05-23T07:56:56.336Z,61.19
2023-05-23T07:57:56.406Z,61.18
2023-05-23T07:58:56.664Z,61.21
2023-05-23T07:59:56.756Z,61.27
2023-05-23T08:00:56.612Z,61.29
2023-05-23T08:01:56.741Z,61.19
2023-05-23T08:02:56.758Z,61.18
2023-05-23T08:03:56.808Z,60.94
2023-05-23T08:04:56.995Z,60.86
2023-05-23T08:05:56.860Z,60.85
2023-05-23T08:07:56.959Z,60.69
2023-05-23T08:08:56.919Z,60.64
2023-05-23T08:09:56.981Z,60.62
2023-05-23T08:10:56.958Z,60.66
2023-05-23T08:11:56.884Z,60.67
2023-05-23T08:12:56.880Z,60.63
2023-05-23T08:13:57.115Z,60.52
2023-05-23T08:14:56.854Z,60.52
2023-05-23T08:15:56.872Z,60.47
2023-05-23T08:16:56.904Z,60.42
2023-05-23T08:17:56.955Z,60.40
2023-05-23T08:18:56.972Z,60.38
2023-05-23T08:19:56.852Z,60.43
2023-05-23T08:20:56.803Z,60.34
2023-05-23T08:21:56.813Z,60.34
2023-05-23T08:22:56.817Z,60.30
2023-05-23T08:23:56.783Z,60.29
2023-05-23T08:24:56.808Z,60.28
2023-05-23T08:25:56.821Z,60.27
2023-05-23T08:26:56.806Z,60.27
2023-05-23T08:27:56.782Z,60.27
2023-05-23T08:28:56.745Z,60.27
2023-05-23T08:29:56.773Z,60.24
2023-05-23T08:30:56.811Z,60.31
2023-05-23T08:31:56.801Z,60.21
2023-05-23T08:32:56.782Z,60.23
2023-05-23T08:33:56.759Z,60.19
2023-05-23T08:34:56.733Z,60.18
2023-05-23T08:35:56.745Z,60.18
2023-05-23T08:36:56.714Z,60.11
2023-05-23T08:37:56.731Z,60.05
2023-05-23T08:38:56.699Z,60.02
2023-05-23T08:39:56.701Z,59.95
2023-05-23T08:40:56.717Z,59.91
2023-05-23T08:41:56.684Z,59.91
2023-05-23T08:42:56.685Z,59.88
2023-05-23T08:43:56.656Z,59.87
2023-05-23T08:44:56.670Z,59.85
2023-05-23T08:45:56.697Z,59.82
2023-05-23T08:46:56.652Z,59.97
2023-05-23T08:47:56.661Z,59.94
2023-05-23T08:48:56.662Z,59.83
2023-05-23T08:49:56.672Z,59.82
2023-05-23T08:50:56.593Z,59.77
2023-05-23T08:51:56.619Z,59.79
2023-05-23T08:52:56.669Z,59.88
2023-05-23T08:53:56.592Z,60.23
2023-05-23T08:54:56.606Z,60.11
2023-05-23T08:55:56.667Z,60.12
2023-05-23T08:56:56.583Z,60.09
2023-05-23T08:57:56.591Z,60.01
2023-05-23T08:58:56.585Z,59.99
2023-05-23T08:59:56.569Z,60.05
2023-05-23T09:00:56.692Z,60.07
2023-05-23T09:01:56.628Z,60.07
2023-05-23T09:02:56.597Z,60.08
2023-05-23T09:03:56.562Z,60.08
2023-05-23T09:04:56.532Z,60.10
2023-05-23T09:05:56.677Z,60.17
2023-05-23T09:06:56.535Z,60.23
2023-05-23T09:07:56.518Z,60.22
2023-05-23T09:08:56.493Z,60.26
2023-05-23T09:09:56.516Z,60.30
2023-05-23T09:10:56.510Z,60.47
2023-05-23T09:11:56.511Z,60.56
2023-05-23T09:12:56.510Z,60.69
2023-05-23T09:13:56.474Z,60.59
2023-05-23T09:14:56.495Z,60.64
2023-05-23T09:15:56.486Z,60.65
2023-05-23T09:16:56.454Z,60.70
2023-05-23T09:17:56.519Z,60.66
2023-05-23T09:18:56.530Z,60.67
2023-05-23T09:19:56.566Z,60.72
2023-05-23T09:20:56.545Z,60.81
2023-05-23T09:21:56.547Z,60.84
2023-05-23T09:22:56.591Z,60.83
2023-05-23T09:23:56.606Z,60.89
2023-05-23T09:24:56.616Z,60.92
2023-05-23T09:25:56.677Z,60.99
2023-05-23T09:26:56.709Z,61.24
2023-05-23T09:27:56.672Z,62.00
2023-05-23T09:28:56.725Z,61.43
2023-05-23T09:29:56.716Z,61.54
2023-05-23T09:30:56.704Z,61.67
2023-05-23T09:31:56.839Z,61.52
2023-05-23T09:32:56.788Z,61.63
2023-05-23T09:33:56.773Z,61.47
2023-05-23T09:34:56.758Z,61.47
2023-05-23T09:35:56.871Z,61.66
2023-05-23T09:36:56.778Z,61.48
2023-05-23T09:37:56.795Z,61.60
2023-05-23T09:38:56.772Z,61.53
2023-05-23T09:39:56.818Z,61.60
2023-05-23T09:40:56.813Z,61.49
2023-05-23T09:41:56.798Z,61.45
2023-05-23T09:42:56.842Z,61.63
2023-05-23T09:43:56.834Z,61.59
2023-05-23T09:44:56.866Z,61.59
2023-05-23T09:45:56.853Z,61.67
2023-05-23T09:46:56.855Z,61.73
2023-05-23T09:47:56.905Z,61.79
2023-05-23T09:48:56.897Z,61.78
2023-05-23T09:49:56.894Z,62.02
2023-05-23T09:50:56.909Z,61.86
2023-05-23T09:51:56.938Z,61.76
2023-05-23T09:52:56.968Z,61.65
2023-05-23T09:53:57.101Z,61.67
2023-05-23T09:54:56.995Z,61.79
2023-05-23T09:55:57.026Z,61.75
2023-05-23T09:56:57.329Z,61.80
2023-05-23T09:57:57.061Z,61.79
2023-05-23T09:58:57.023Z,61.81
2023-05-23T09:59:57.062Z,61.78
2023-05-23T10:00:57.056Z,62.01
2023-05-23T10:01:57.067Z,61.95
2023-05-23T10:02:57.136Z,61.86
2023-05-23T10:03:59.417Z,61.99
2023-05-23T10:04:57.056Z,61.95
2023-05-23T10:05:57.033Z,61.74
2023-05-23T10:06:57.087Z,61.82
2023-05-23T10:07:57.030Z,61.97
2023-05-23T10:08:57.006Z,62.00
2023-05-23T10:09:59.123Z,61.84
2023-05-23T10:10:57.154Z,61.86
2023-05-23T10:11:57.013Z,61.88
2023-05-23T10:12:56.991Z,62.06
2023-05-23T10:13:56.980Z,61.95
2023-05-23T10:14:57.016Z,62.27
2023-05-23T10:15:58.163Z,61.90
2023-05-23T10:16:57.019Z,62.09
2023-05-23T10:17:57.061Z,62.04
2023-05-23T10:18:57.047Z,62.07
2023-05-23T10:19:57.002Z,62.02
2023-05-23T10:20:57.019Z,62.05
2023-05-23T10:21:57.021Z,62.08
2023-05-23T10:22:57.024Z,62.10
2023-05-23T10:23:57.007Z,62.10
2023-05-23T10:24:57.023Z,62.09
2023-05-23T10:25:56.990Z,61.96
2023-05-23T10:26:57.010Z,61.94
2023-05-23T10:27:56.995Z,62.01
2023-05-23T10:28:57.025Z,62.09
2023-05-23T10:29:57.024Z,62.25
2023-05-23T10:30:57.130Z,62.34
2023-05-23T10:31:57.005Z,62.34
2023-05-23T10:32:57.028Z,62.32
2023-05-23T10:33:57.044Z,62.19
2023-05-23T10:34:57.100Z,62.08
2023-05-23T10:35:57.023Z,61.69
2023-05-23T10:36:57.002Z,60.92
2023-05-23T10:37:57.111Z,60.41
2023-05-23T10:38:57.003Z,60.45
2023-05-23T10:39:57.041Z,60.29
2023-05-23T10:40:57.071Z,59.86
2023-05-23T10:41:57.096Z,60.21
2023-05-23T10:42:57.139Z,59.66
2023-05-23T10:43:57.171Z,60.33
2023-05-23T10:44:57.590Z,60.46
2023-05-23T10:45:57.311Z,60.44
2023-05-23T10:46:57.347Z,60.49
2023-05-23T10:47:57.346Z,60.46
2023-05-23T10:48:57.441Z,60.46
2023-05-23T10:49:57.452Z,60.47
2023-05-23T10:50:57.519Z,60.50
2023-05-23T10:51:57.560Z,60.46
2023-05-23T10:52:57.592Z,60.45
2023-05-23T10:53:57.637Z,60.45
2023-05-23T10:54:57.727Z,60.41
2023-05-23T10:55:57.745Z,60.40
2023-05-23T10:56:57.831Z,60.37
2023-05-23T10:57:57.853Z,60.35
2023-05-23T10:58:57.937Z,60.37
2023-05-23T10:59:57.935Z,60.34
2023-05-23T11:00:58.046Z,60.30
2023-05-23T11:01:58.107Z,60.33
2023-05-23T11:02:58.187Z,60.34
2023-05-23T11:03:58.294Z,60.30
2023-05-23T11:04:58.230Z,60.30
2023-05-23T11:05:58.256Z,60.28
2023-05-23T11:06:58.350Z,60.29
2023-05-23T11:07:58.415Z,60.28
2023-05-23T11:08:58.486Z,60.26
2023-05-23T11:09:58.509Z,60.24
2023-05-23T11:10:58.563Z,60.22
2023-05-23T11:11:58.637Z,60.21
2023-05-23T11:12:58.704Z,60.15
2023-05-23T11:13:58.758Z,60.13
2023-05-23T11:14:58.830Z,60.12
2023-05-23T11:15:58.931Z,60.11
2023-05-23T11:16:58.953Z,60.12
2023-05-23T11:17:59.043Z,60.10
2023-05-23T11:18:59.092Z,60.12
2023-05-23T11:19:59.131Z,60.14
2023-05-23T11:20:59.179Z,60.14
2023-05-23T11:21:59.237Z,60.16
2023-05-23T11:22:59.288Z,60.15
2023-05-23T11:23:59.364Z,60.18
2023-05-23T11:24:59.445Z,60.16
2023-05-23T11:25:59.476Z,60.16
2023-05-23T11:26:59.527Z,60.17
2023-05-23T11:27:59.624Z,60.15
2023-05-23T11:28:59.714Z,60.17
2023-05-23T11:29:59.714Z,60.15
2023-05-23T11:30:59.792Z,60.16
2023-05-23T11:31:59.888Z,60.15
2023-05-23T11:32:59.959Z,60.15
2023-05-23T11:34:00.050Z,60.14
2023-05-23T11:35:00.094Z,60.10
2023-05-23T11:36:00.162Z,60.15
2023-05-23T11:37:00.208Z,60.15
2023-05-23T11:38:00.293Z,60.11
2023-05-23T11:39:00.321Z,60.09
2023-05-23T11:40:00.388Z,60.09
2023-05-23T11:41:00.487Z,60.06
2023-05-23T11:42:00.508Z,60.04
2023-05-23T11:43:00.566Z,60.03
2023-05-23T11:44:00.644Z,60.03
2023-05-23T11:45:00.696Z,60.03
2023-05-23T11:46:00.807Z,60.06
2023-05-23T11:47:00.808Z,60.02
2023-05-23T11:48:00.856Z,60.01
2023-05-23T11:49:00.929Z,59.99
2023-05-23T11:50:00.974Z,59.99
2023-05-23T11:51:01.055Z,59.97
2023-05-23T11:52:01.051Z,59.97
2023-05-23T11:53:01.164Z,59.96
2023-05-23T11:54:01.190Z,59.96
2023-05-23T11:55:03.855Z,59.94
2023-05-23T11:56:01.252Z,59.89
2023-05-23T11:57:01.250Z,59.90
2023-05-23T11:58:01.839Z,59.88
2023-05-23T11:59:01.273Z,59.87
2023-05-23T12:00:01.191Z,59.85
2023-05-23T12:01:01.217Z,59.86
2023-05-23T12:02:01.237Z,59.82
2023-05-23T12:03:01.329Z,59.81
2023-05-23T12:04:01.398Z,59.82
2023-05-23T12:05:01.249Z,59.83
2023-05-23T12:06:01.235Z,59.80
2023-05-23T12:07:01.194Z,59.77
2023-05-23T12:08:01.182Z,59.75
2023-05-23T12:09:01.177Z,59.73
2023-05-23T12:10:01.188Z,59.73
2023-05-23T12:11:01.157Z,59.72
2023-05-23T12:12:01.177Z,59.73
2023-05-23T12:13:01.178Z,59.72
2023-05-23T12:14:01.136Z,59.72
2023-05-23T12:15:01.158Z,59.71
2023-05-23T12:16:01.175Z,59.73
2023-05-23T12:17:01.102Z,59.70
2023-05-23T12:18:01.144Z,59.69
2023-05-23T12:19:01.174Z,59.66
2023-05-23T12:20:01.080Z,59.65
2023-05-23T12:21:01.077Z,59.63
2023-05-23T12:22:01.075Z,59.61
2023-05-23T12:23:01.080Z,59.61
2023-05-23T12:24:08.070Z,59.59
2023-05-23T12:25:01.077Z,59.59
2023-05-23T12:26:01.053Z,59.58
2023-05-23T12:27:01.059Z,59.57
2023-05-23T12:28:01.069Z,59.54
2023-05-23T12:29:01.020Z,59.56
2023-05-23T12:30:01.057Z,59.53
2023-05-23T12:31:01.009Z,59.49
2023-05-23T12:32:01.016Z,59.49
2023-05-23T12:33:01.039Z,59.53
2023-05-23T12:34:00.994Z,59.59
2023-05-23T12:35:01.009Z,59.53
2023-05-23T12:36:00.995Z,59.54
2023-05-23T12:37:17.515Z,59.58
2023-05-23T12:38:01.980Z,59.65
2023-05-23T12:39:00.961Z,59.60
2023-05-23T12:40:01.001Z,59.56
2023-05-23T12:41:00.934Z,59.64
2023-05-23T12:42:00.953Z,59.66
2023-05-23T12:43:00.986Z,59.76
2023-05-23T12:44:00.933Z,59.75
2023-05-23T12:45:00.906Z,59.89
2023-05-23T12:46:00.904Z,59.99
2023-05-23T12:47:01.003Z,60.22
2023-05-23T12:48:00.992Z,60.35
2023-05-23T12:49:00.922Z,60.46
2023-05-23T12:50:00.883Z,60.60
2023-05-23T12:51:00.900Z,60.69
2023-05-23T12:52:00.902Z,60.82
2023-05-23T12:53:00.969Z,60.93
2023-05-23T12:54:00.879Z,61.03
2023-05-23T12:55:00.867Z,61.18